Time;durP1;ratioP1;P1;durP2;ratioP2;P2;SDS_P1;SDS_P2;PMS_P1;PMS_P2;Temp;Humidity;BMP_temperature;BMP_pressure;BME280_temperature;BME280_humidity;BME280_pressure;Samples;Min_cycle;Max_cycle;Signal;HPM_P1;HPM_P2
2022/08/13 00:04:00;;;;;;;;;;;23.80;59.10;;;;;;8399729;28;19932;-70
2022/08/13 00:08:04;;;;;;;;;;;23.80;59.30;;;;;;8409016;28;19931;-70
2022/08/13 00:16:37;;;;;;;;;;;23.70;59.40;;;;;;8404836;28;22535;-70
2022/08/13 00:20:41;;;;;;;;;;;23.70;59.50;;;;;;8411880;28;20002;-70
2022/08/13 00:24:45;;;;;;;;;;;23.60;59.50;;;;;;8401748;28;19947;-70
2022/08/13 00:28:52;;;;;;;;;;;23.60;59.60;;;;;;8412761;28;19940;-70
2022/08/13 00:32:54;;;;;;;;;;;23.50;59.60;;;;;;8425781;28;19924;-70
2022/08/13 00:36:57;;;;;;;;;;;23.40;59.60;;;;;;8393579;28;19924;-70
2022/08/13 00:41:08;;;;;;;;;;;23.40;60.40;;;;;;8413962;28;19966;-70
2022/08/13 00:45:17;;;;;;;;;;;23.40;59.80;;;;;;8421353;28;20375;-70
2022/08/13 00:49:19;;;;;;;;;;;23.30;59.90;;;;;;8429454;28;19924;-70
2022/08/13 00:53:23;;;;;;;;;;;23.30;60.00;;;;;;8420682;28;19920;-70
2022/08/13 00:57:26;;;;;;;;;;;23.20;60.00;;;;;;8429535;28;19919;-70
2022/08/13 01:01:30;;;;;;;;;;;23.20;60.30;;;;;;8423166;28;19923;-70
2022/08/13 01:05:37;;;;;;;;;;;23.10;60.30;;;;;;8410965;28;20316;-70
2022/08/13 01:09:42;;;;;;;;;;;23.00;60.40;;;;;;8421117;28;19923;-70
2022/08/13 01:14:07;;;;;;;;;;;22.90;60.40;;;;;;8441456;28;20010;-70
2022/08/13 01:18:15;;;;;;;;;;;22.80;60.50;;;;;;8411137;28;19924;-70
2022/08/13 01:22:17;;;;;;;;;;;22.70;60.80;;;;;;8408773;28;20373;-70
2022/08/13 01:26:32;;;;;;;;;;;22.60;60.90;;;;;;8430547;28;19967;-70
2022/08/13 01:30:34;;;;;;;;;;;22.50;61.00;;;;;;8425985;28;19928;-70
2022/08/13 01:34:36;;;;;;;;;;;22.40;61.10;;;;;;8424938;28;20010;-70
2022/08/13 01:38:39;;;;;;;;;;;22.30;61.30;;;;;;8415461;28;19924;-69
2022/08/13 01:42:44;;;;;;;;;;;22.30;61.50;;;;;;8408790;28;19931;-70
2022/08/13 01:51:08;;;;;;;;;;;22.10;61.70;;;;;;8407858;28;19924;-70
2022/08/13 01:55:21;;;;;;;;;;;22.10;61.80;;;;;;8426164;28;19920;-69
2022/08/13 01:59:25;;;;;;;;;;;22.00;61.90;;;;;;8421710;28;19942;-70
2022/08/13 02:03:27;;;;;;;;;;;22.00;62.20;;;;;;8412349;28;19939;-70
2022/08/13 02:07:29;;;;;;;;;;;21.90;62.40;;;;;;8414130;28;20203;-70
2022/08/13 02:11:51;;;;;;;;;;;21.80;63.00;;;;;;8426522;28;19986;-69
2022/08/13 02:15:53;;;;;;;;;;;21.80;62.70;;;;;;8435684;28;19923;-69
2022/08/13 02:19:55;;;;;;;;;;;21.70;62.70;;;;;;8424668;28;20274;-70
2022/08/13 02:23:58;;;;;;;;;;;21.70;63.00;;;;;;8419546;28;20025;-70
2022/08/13 02:28:02;;;;;;;;;;;21.60;63.10;;;;;;8402002;28;19928;-69
2022/08/13 02:32:05;;;;;;;;;;;21.60;63.20;;;;;;8413305;28;19920;-70
2022/08/13 02:36:18;;;;;;;;;;;21.50;63.30;;;;;;8434519;28;19931;-70
2022/08/13 02:44:44;;;;;;;;;;;21.40;63.50;;;;;;8418707;28;19924;-70
2022/08/13 02:48:46;;;;;;;;;;;21.30;63.60;;;;;;8442219;28;20331;-70
2022/08/13 02:52:51;;;;;;;;;;;21.20;63.80;;;;;;8415496;28;19919;-70
2022/08/13 02:56:59;;;;;;;;;;;21.20;64.00;;;;;;8427600;28;19928;-70
2022/08/13 03:01:02;;;;;;;;;;;21.10;64.10;;;;;;8408203;28;19927;-69
2022/08/13 03:05:04;;;;;;;;;;;21.10;64.20;;;;;;8410440;28;19920;-70
2022/08/13 03:09:06;;;;;;;;;;;21.00;64.30;;;;;;8424625;28;19919;-70
2022/08/13 03:13:16;;;;;;;;;;;20.90;64.60;;;;;;8427019;28;19927;-70
2022/08/13 03:17:22;;;;;;;;;;;20.90;64.70;;;;;;8413391;28;20374;-69
2022/08/13 03:21:28;;;;;;;;;;;20.80;64.70;;;;;;8424723;28;19920;-70
2022/08/13 03:25:34;;;;;;;;;;;20.70;65.00;;;;;;8435152;28;19935;-70
2022/08/13 03:29:38;;;;;;;;;;;20.70;65.20;;;;;;8421821;28;19920;-70
2022/08/13 03:34:01;;;;;;;;;;;20.60;65.20;;;;;;8440609;28;19959;-69
2022/08/13 03:38:05;;;;;;;;;;;20.50;65.10;;;;;;8407237;28;20371;-70
2022/08/13 03:42:08;;;;;;;;;;;20.50;65.10;;;;;;8412140;28;19920;-70
2022/08/13 03:46:10;;;;;;;;;;;20.40;65.30;;;;;;8423859;28;19920;-69
2022/08/13 03:50:13;;;;;;;;;;;20.30;65.20;;;;;;8438805;28;19927;-69
2022/08/13 03:54:15;;;;;;;;;;;20.30;65.20;;;;;;8436676;28;19920;-69
2022/08/13 03:58:18;;;;;;;;;;;20.30;65.40;;;;;;8402251;28;19929;-70
2022/08/13 04:02:19;;;;;;;;;;;20.20;65.60;;;;;;8417207;28;19921;-69
2022/08/13 04:06:24;;;;;;;;;;;20.10;65.80;;;;;;8420561;28;19924;-70
2022/08/13 04:10:27;;;;;;;;;;;20.10;66.10;;;;;;8429053;28;19927;-70
2022/08/13 04:14:29;;;;;;;;;;;20.00;66.10;;;;;;8410617;28;19924;-69
2022/08/13 04:18:38;;;;;;;;;;;19.90;66.30;;;;;;8409296;28;19966;-69
2022/08/13 04:22:40;;;;;;;;;;;19.90;66.60;;;;;;8439266;28;20283;-69
2022/08/13 04:26:43;;;;;;;;;;;19.90;66.80;;;;;;8434661;28;20273;-69
2022/08/13 04:30:48;;;;;;;;;;;19.80;66.70;;;;;;8426693;28;20269;-69
2022/08/13 04:34:50;;;;;;;;;;;19.90;67.00;;;;;;8440749;28;19919;-68
2022/08/13 04:38:52;;;;;;;;;;;19.80;66.90;;;;;;8415250;28;20394;-70
2022/08/13 04:42:53;;;;;;;;;;;19.80;67.10;;;;;;8447670;28;19931;-70
2022/08/13 04:46:55;;;;;;;;;;;19.80;67.20;;;;;;8442678;28;19919;-69
2022/08/13 04:50:57;;;;;;;;;;;19.80;67.00;;;;;;8416219;28;20006;-69
2022/08/13 04:55:01;;;;;;;;;;;19.80;67.60;;;;;;8427091;28;19924;-69
2022/08/13 04:59:03;;;;;;;;;;;19.80;68.00;;;;;;8393177;28;19938;-69
2022/08/13 05:03:08;;;;;;;;;;;19.80;68.10;;;;;;8412568;28;19920;-69
2022/08/13 05:07:10;;;;;;;;;;;19.80;68.50;;;;;;8422192;28;19920;-69
2022/08/13 05:11:12;;;;;;;;;;;19.80;68.90;;;;;;8440312;28;19920;-69
2022/08/13 05:15:15;;;;;;;;;;;19.80;69.00;;;;;;8434438;28;20346;-69
2022/08/13 05:19:36;;;;;;;;;;;19.90;69.40;;;;;;8396870;28;19959;-69
2022/08/13 05:23:40;;;;;;;;;;;20.00;69.50;;;;;;8407455;28;20350;-69
2022/08/13 05:28:02;;;;;;;;;;;20.00;69.60;;;;;;8408531;28;20394;-69
2022/08/13 05:32:04;;;;;;;;;;;20.10;70.00;;;;;;8402461;28;19920;-70
2022/08/13 05:36:11;;;;;;;;;;;20.10;70.40;;;;;;8410595;28;20010;-69
2022/08/13 05:40:33;;;;;;;;;;;20.20;70.60;;;;;;8418245;28;19955;-69
2022/08/13 05:44:37;;;;;;;;;;;20.30;70.90;;;;;;8443115;28;19919;-69
2022/08/13 05:48:40;;;;;;;;;;;20.40;71.10;;;;;;8431666;28;20451;-69
2022/08/13 05:52:42;;;;;;;;;;;20.50;71.30;;;;;;8398571;28;19924;-69
2022/08/13 05:56:49;;;;;;;;;;;20.50;71.50;;;;;;8385999;28;19929;-69
2022/08/13 06:05:15;;;;;;;;;;;20.70;72.40;;;;;;8391096;28;19920;-70
2022/08/13 06:09:18;;;;;;;;;;;20.90;72.90;;;;;;8391223;28;19935;-69
2022/08/13 06:13:21;;;;;;;;;;;20.90;73.40;;;;;;8392934;28;19957;-69
2022/08/13 06:17:28;;;;;;;;;;;21.10;74.20;;;;;;8391547;28;19924;-69
2022/08/13 06:21:30;;;;;;;;;;;21.20;74.20;;;;;;8388535;28;20408;-69
2022/08/13 06:25:51;;;;;;;;;;;21.40;74.90;;;;;;8387648;28;20022;-69
2022/08/13 06:30:01;;;;;;;;;;;21.60;74.70;;;;;;8391739;28;19982;-69
2022/08/13 06:34:02;;;;;;;;;;;21.70;74.60;;;;;;8391650;28;19928;-69
2022/08/13 06:38:10;;;;;;;;;;;21.90;74.70;;;;;;8389939;28;19928;-69
2022/08/13 06:42:12;;;;;;;;;;;22.10;74.70;;;;;;8387887;28;20386;-69
2022/08/13 06:46:17;;;;;;;3.15;1.77;;;22.20;74.70;;;;;;8393118;28;19931;-69
2022/08/13 06:50:28;;;;;;;4.68;2.00;;;22.40;74.70;;;;;;8387335;28;20446;-69
2022/08/13 06:54:30;;;;;;;4.10;1.60;;;22.50;74.70;;;;;;8387005;28;20045;-69
2022/08/13 06:58:37;;;;;;;;;;;22.70;74.80;;;;;;8390996;28;20049;-69
2022/08/13 07:02:43;;;;;;;3.53;1.85;;;22.80;75.20;;;;;;8390831;28;19927;-69
2022/08/13 07:06:47;;;;;;;3.53;1.98;;;22.90;75.20;;;;;;8385862;28;20050;-69
2022/08/13 07:11:21;;;;;;;3.63;2.00;;;23.00;75.20;;;;;;8388210;28;20082;-69
2022/08/13 07:15:16;;;;;;;4.93;2.05;;;23.10;75.20;;;;;;8389139;28;20081;-69
2022/08/13 07:19:38;;;;;;;5.00;2.08;;;23.20;75.10;;;;;;8389965;28;20067;-69
2022/08/13 07:24:04;;;;;;;4.60;2.20;;;23.30;75.10;;;;;;8391051;28;20664;-69
2022/08/13 07:28:27;;;;;;;4.23;1.97;;;23.40;75.20;;;;;;8387975;28;20139;-69
2022/08/13 07:32:51;;;;;;;5.22;1.85;;;23.50;75.50;;;;;;8372390;28;20818;-69
2022/08/13 07:36:56;;;;;;;4.93;1.98;;;23.70;75.80;;;;;;8369891;28;20046;-69
2022/08/13 07:41:01;;;;;;;;;;;23.80;75.90;;;;;;8387508;28;20135;-69
2022/08/13 07:45:08;;;;;;;4.60;2.37;;;23.90;75.70;;;;;;8391404;28;19967;-69
2022/08/13 07:49:29;;;;;;;;;;;24.00;75.30;;;;;;8399913;28;19930;-69
2022/08/13 07:53:41;;;;;;;;;;;24.20;75.20;;;;;;8390234;28;20441;-69
2022/08/13 07:57:56;;;;;;;;;;;24.20;75.00;;;;;;8387901;28;19997;-69
2022/08/13 08:01:58;;;;;;;;;;;24.40;75.20;;;;;;8389799;28;19920;-69
2022/08/13 08:06:20;;;;;;;;;;;24.50;75.10;;;;;;8386275;28;20058;-69
2022/08/13 08:10:30;;;;;;;;;;;24.60;75.40;;;;;;8386057;28;20298;-69
2022/08/13 08:14:32;;;;;;;;;;;24.70;75.30;;;;;;8383566;28;19928;-69
2022/08/13 08:18:34;;;;;;;;;;;24.80;75.40;;;;;;8362995;28;19931;-69
2022/08/13 08:22:57;;;;;;;;;;;24.90;74.80;;;;;;8391280;28;20699;-69
2022/08/13 08:27:03;;;;;;;;;;;25.00;74.40;;;;;;8386373;28;19928;-69
2022/08/13 08:31:06;;;;;;;;;;;25.10;73.20;;;;;;8387154;28;19927;-69
2022/08/13 08:35:22;;;;;;;;;;;25.20;73.10;;;;;;8381971;28;19920;-69
2022/08/13 08:43:46;;;;;;;;;;;25.40;72.80;;;;;;8387555;28;20364;-70
2022/08/13 08:47:49;;;;;;;;;;;25.40;72.40;;;;;;8384110;28;19925;-69
2022/08/13 08:51:51;;;;;;;;;;;25.50;72.50;;;;;;8382805;28;19920;-69
2022/08/13 08:55:54;;;;;;;3.65;1.85;;;25.60;72.60;;;;;;8381460;28;19935;-70
2022/08/13 08:59:55;;;;;;;4.47;1.65;;;25.70;72.60;;;;;;8388807;28;20053;-69
2022/08/13 09:03:58;;;;;;;3.42;1.98;;;25.80;72.70;;;;;;8389305;28;20057;-69
2022/08/13 09:08:03;;;;;;;3.45;1.88;;;25.90;73.00;;;;;;8385483;28;20067;-69
2022/08/13 09:12:07;;;;;;;3.70;1.92;;;26.00;73.40;;;;;;8387037;28;20048;-70
2022/08/13 09:16:11;;;;;;;4.47;2.00;;;26.10;73.20;;;;;;8398804;28;20337;-69
2022/08/13 09:20:24;;;;;;;4.30;1.55;;;26.20;72.90;;;;;;8400237;28;20061;-69
2022/08/13 09:24:26;;;;;;;4.40;1.80;;;26.20;73.00;;;;;;8385687;28;20044;-69
2022/08/13 09:28:27;;;;;;;3.88;1.90;;;26.40;73.20;;;;;;8392813;28;20048;-69
2022/08/13 09:32:38;;;;;;;3.00;1.60;;;26.50;73.00;;;;;;8390598;28;20105;-69
2022/08/13 09:36:40;;;;;;;2.63;1.50;;;26.50;73.20;;;;;;8389207;28;20036;-69
2022/08/13 09:40:55;;;;;;;4.83;1.80;;;26.60;73.10;;;;;;8390915;28;20439;-69
2022/08/13 09:45:14;;;;;;;;;;;26.60;72.70;;;;;;8393890;28;20312;-69
2022/08/13 09:49:16;;;;;;;;;;;26.70;72.80;;;;;;8387188;28;19936;-69
2022/08/13 09:53:18;;;;;;;;;;;26.80;72.80;;;;;;8390782;28;19964;-70
2022/08/13 09:57:20;;;;;;;;;;;26.90;73.40;;;;;;8392638;28;19920;-69
2022/08/13 10:01:22;;;;;;;;;;;27.00;72.00;;;;;;8385530;28;20391;-69
2022/08/13 10:05:34;;;;;;;;;;;27.00;72.10;;;;;;8390787;28;24195;-69
2022/08/13 10:09:39;;;;;;;;;;;27.20;72.30;;;;;;8393709;28;20023;-69
2022/08/13 10:13:57;;;;;;;;;;;27.30;71.60;;;;;;8384892;28;19924;-69
2022/08/13 10:18:02;;;;;;;3.40;1.70;;;27.30;71.80;;;;;;8405064;27;19931;-69
2022/08/13 10:22:10;;;;;;;;;;;27.40;72.00;;;;;;8389718;28;19924;-70
2022/08/13 10:26:18;;;;;;;3.25;1.60;;;27.50;71.60;;;;;;8390511;28;19932;-69
2022/08/13 10:30:24;;;;;;;3.85;1.80;;;27.60;71.50;;;;;;8389943;28;20079;-70
2022/08/13 10:34:46;;;;;;;;;;;27.80;71.40;;;;;;8372825;28;20044;-69
2022/08/13 10:38:58;;;;;;;5.85;1.80;;;27.90;70.80;;;;;;8391948;28;19986;-69
2022/08/13 10:42:59;;;;;;;3.00;1.70;;;28.10;70.60;;;;;;8392741;28;20036;-69
2022/08/13 10:47:01;;;;;;;5.15;1.80;;;28.20;70.20;;;;;;8387936;28;20040;-69
2022/08/13 10:51:04;;;;;;;3.10;1.48;;;28.30;69.60;;;;;;8389636;28;20463;-70
2022/08/13 10:55:11;;;;;;;4.95;1.80;;;28.30;69.50;;;;;;8375435;28;20456;-69
2022/08/13 10:59:13;;;;;;;4.43;1.77;;;28.40;69.10;;;;;;8387400;28;20155;-69
2022/08/13 11:03:18;;;;;;;2.97;1.60;;;28.40;69.50;;;;;;8389891;28;20049;-69
2022/08/13 11:07:22;;;;;;;3.80;1.80;;;28.40;69.60;;;;;;8388466;28;20451;-69
2022/08/13 11:11:27;;;;;;;4.35;1.70;;;28.50;69.10;;;;;;8401912;28;20414;-69
2022/08/13 11:15:48;;;;;;;4.35;1.90;;;28.50;67.80;;;;;;8400906;28;20056;-69
2022/08/13 11:20:04;;;;;;;3.50;1.70;;;28.50;67.30;;;;;;8392598;28;20628;-69
2022/08/13 11:24:10;;;;;;;5.03;1.80;;;28.60;67.60;;;;;;8391173;28;20068;-69
2022/08/13 11:28:15;;;;;;;3.35;1.50;;;28.60;68.10;;;;;;8387388;28;20052;-69
2022/08/13 11:32:20;;;;;;;3.65;1.80;;;28.70;68.50;;;;;;8387288;28;20059;-69
2022/08/13 11:36:23;;;;;;;2.75;1.48;;;28.80;67.20;;;;;;8379169;28;20064;-69
2022/08/13 11:40:28;;;;;;;3.10;1.50;;;28.80;65.80;;;;;;8388265;28;20056;-69
2022/08/13 11:44:34;;;;;;;;;;;29.00;65.60;;;;;;8390071;28;20040;-69
2022/08/13 11:48:38;;;;;;;3.35;1.40;;;29.20;66.10;;;;;;8391498;28;20494;-69
2022/08/13 11:52:41;;;;;;;3.08;1.42;;;29.40;65.40;;;;;;8393012;28;20052;-69
2022/08/13 11:56:43;;;;;;;4.43;1.48;;;29.50;65.00;;;;;;8389417;28;20063;-69
2022/08/13 12:00:54;;;;;;;4.30;1.60;;;29.60;63.80;;;;;;8390311;28;20044;-69
2022/08/13 12:04:56;;;;;;;3.03;1.50;;;29.60;64.20;;;;;;8388426;28;20408;-69
2022/08/13 12:08:58;;;;;;;2.72;1.40;;;29.50;64.40;;;;;;8387426;28;20500;-69
2022/08/13 12:13:20;;;;;;;3.08;1.60;;;29.60;64.00;;;;;;8386460;28;20049;-70
2022/08/13 12:17:22;;;;;;;3.10;1.50;;;29.60;63.80;;;;;;8386094;28;20083;-69
2022/08/13 12:21:44;;;;;;;3.45;1.50;;;29.80;62.30;;;;;;8387645;28;20072;-69
2022/08/13 12:25:45;;;;;;;2.40;1.30;;;29.90;61.40;;;;;;8389629;28;20044;-69
2022/08/13 12:30:06;;;;;;;3.97;1.70;;;29.90;60.90;;;;;;8390059;28;20059;-69
2022/08/13 12:34:08;;;;;;;3.30;1.40;;;29.90;60.90;;;;;;8370746;28;20052;-69
2022/08/13 12:38:51;;;;;;;2.78;1.42;;;29.90;60.70;;;;;;8388334;28;20044;-69
2022/08/13 12:43:01;;;;;;;3.00;1.55;;;30.00;60.00;;;;;;8392524;28;20072;-69
2022/08/13 12:47:10;;;;;;;4.00;1.45;;;30.00;59.80;;;;;;8391199;28;20044;-69
2022/08/13 12:51:19;;;;;;;2.88;1.33;;;30.00;58.60;;;;;;8392123;28;20059;-69
2022/08/13 12:55:23;;;;;;;3.22;1.55;;;29.90;58.90;;;;;;8387225;28;20044;-69
2022/08/13 12:59:34;;;;;;;13.95;2.65;;;30.00;58.50;;;;;;8391253;28;20543;-69
2022/08/13 13:03:49;;;;;;;37.42;4.32;;;30.00;59.30;;;;;;8390321;28;20045;-69
2022/08/13 13:07:53;;;;;;;18.63;3.15;;;30.10;59.40;;;;;;8393321;28;20447;-69
2022/08/13 13:12:11;;;;;;;5.15;1.60;;;30.10;59.60;;;;;;8387726;28;20048;-70
2022/08/13 13:16:13;;;;;;;4.50;1.50;;;30.10;58.90;;;;;;8391514;28;20058;-70
2022/08/13 13:20:34;;;;;;;3.50;1.42;;;30.20;58.40;;;;;;8392698;28;20574;-69
2022/08/13 13:24:37;;;;;;;3.10;1.50;;;30.20;57.80;;;;;;8391387;28;20045;-70
2022/08/13 13:28:59;;;;;;;3.80;1.38;;;30.20;58.00;;;;;;8393049;28;20052;-69
2022/08/13 13:33:02;;;;;;;2.97;1.42;;;30.20;57.70;;;;;;8395057;28;20048;-69
2022/08/13 13:37:14;;;;;;;5.05;1.50;;;30.30;57.50;;;;;;8386870;28;20048;-70
2022/08/13 13:41:20;;;;;;;2.90;1.45;;;30.30;56.90;;;;;;8393576;28;20447;-69
2022/08/13 13:45:42;;;;;;;3.28;1.30;;;30.40;56.90;;;;;;8376410;28;20045;-69
2022/08/13 13:49:44;;;;;;;3.20;1.25;;;30.40;57.10;;;;;;8390987;28;20086;-69
2022/08/13 13:53:46;;;;;;;3.03;1.30;;;30.50;57.00;;;;;;8386193;28;20040;-69
2022/08/13 13:58:08;;;;;;;3.75;1.40;;;30.50;57.00;;;;;;8385434;28;20135;-69
2022/08/13 14:02:30;;;;;;;2.65;1.33;;;30.60;56.80;;;;;;8393224;28;20551;-69
2022/08/13 14:06:43;;;;;;;4.20;1.70;;;30.70;55.80;;;;;;8382517;28;20107;-70
2022/08/13 14:10:46;;;;;;;6.20;1.70;;;30.60;54.60;;;;;;8389452;28;20049;-70
2022/08/13 14:14:49;;;;;;;3.40;1.70;;;30.60;54.50;;;;;;8388424;28;20155;-70
2022/08/13 14:18:51;;;;;;;3.05;1.48;;;30.60;55.00;;;;;;8387967;28;20535;-69
2022/08/13 14:22:53;;;;;;;3.50;1.80;;;30.60;54.80;;;;;;8386774;28;20127;-69
2022/08/13 14:26:59;;;;;;;3.60;1.88;;;30.60;54.90;;;;;;8389952;28;20769;-70
2022/08/13 14:31:10;;;;;;;3.63;1.60;;;30.60;54.70;;;;;;8389719;28;20040;-70
2022/08/13 14:35:15;;;;;;;3.65;1.40;;;30.60;54.60;;;;;;8388365;28;20041;-69
2022/08/13 14:39:17;;;;;;;3.17;1.70;;;30.70;54.50;;;;;;8389729;28;20040;-70
2022/08/13 14:43:26;;;;;;;3.47;1.60;;;30.60;54.20;;;;;;8389758;28;20136;-70
2022/08/13 14:47:48;;;;;;;3.10;1.65;;;30.70;54.00;;;;;;8386794;28;21047;-70
2022/08/13 14:51:53;;;;;;;3.40;1.50;;;30.70;54.00;;;;;;8382475;28;20048;-70
2022/08/13 14:56:05;;;;;;;2.90;1.63;;;30.70;54.00;;;;;;8380699;28;20160;-69
2022/08/13 15:00:10;;;;;;;3.75;1.70;;;30.70;53.40;;;;;;8390384;28;20048;-69
2022/08/13 15:04:28;;;;;;;3.78;1.80;;;30.80;53.40;;;;;;8386556;28;20048;-69
2022/08/13 15:08:30;;;;;;;4.13;1.70;;;30.80;53.30;;;;;;8402509;28;20051;-69
2022/08/13 15:12:34;;;;;;;3.83;1.67;;;30.90;53.50;;;;;;8383789;28;20376;-70
2022/08/13 15:16:38;;;;;;;3.20;1.60;;;30.90;53.00;;;;;;8403402;27;20051;-70
2022/08/13 15:20:44;;;;;;;3.97;1.60;;;30.90;52.70;;;;;;8387490;28;20143;-69
2022/08/13 15:25:02;;;;;;;3.90;1.70;;;30.90;51.90;;;;;;8389924;28;20067;-70
2022/08/13 15:29:04;;;;;;;6.22;1.83;;;31.00;51.90;;;;;;8380915;28;20079;-70
2022/08/13 15:33:15;;;;;;;4.25;1.80;;;31.10;52.00;;;;;;8388341;28;20048;-69
2022/08/13 15:37:18;;;;;;;3.05;1.70;;;31.10;51.90;;;;;;8383819;28;20384;-70
2022/08/13 15:41:24;;;;;;;2.85;1.60;;;31.20;52.20;;;;;;8403251;28;20131;-70
2022/08/13 15:45:25;;;;;;;3.45;1.70;;;31.30;51.70;;;;;;8387735;28;20052;-70
2022/08/13 15:49:37;;;;;;;4.47;1.50;;;31.40;51.00;;;;;;8385541;28;20044;-70
2022/08/13 15:53:38;;;;;;;3.75;1.70;;;31.70;51.40;;;;;;8387120;28;20055;-70
2022/08/13 15:57:44;;;;;;;2.55;1.38;;;32.10;51.50;;;;;;8389660;28;20393;-70
2022/08/13 16:01:46;;;;;;;3.20;1.65;;;32.60;51.70;;;;;;8372595;28;20434;-70
2022/08/13 16:05:50;;;;;;;3.22;1.27;;;33.20;52.10;;;;;;8382911;28;20091;-70
2022/08/13 16:09:55;;;;;;;2.20;1.38;;;33.60;52.20;;;;;;8390751;28;20056;-70
2022/08/13 16:13:57;;;;;;;3.95;1.70;;;34.10;52.80;;;;;;8385467;28;20052;-70
2022/08/13 16:17:59;;;;;;;2.88;1.60;;;34.40;52.90;;;;;;8380966;28;20051;-70
2022/08/13 16:22:03;;;;;;;6.32;1.30;;;34.60;52.60;;;;;;8382925;28;20047;-70
2022/08/13 16:26:07;;;;;;;3.30;1.52;;;34.80;52.50;;;;;;8368692;28;20741;-70
2022/08/13 16:30:12;;;;;;;3.97;1.40;;;34.90;52.90;;;;;;8367636;28;20078;-70
2022/08/13 16:34:19;;;;;;;;;;;35.10;52.60;;;;;;8371561;28;20374;-70
2022/08/13 16:38:22;;;;;;;;;;;35.20;51.60;;;;;;8392280;28;19928;-70
2022/08/13 16:42:24;;;;;;;;;;;35.30;51.50;;;;;;8388444;28;19927;-70
2022/08/13 16:46:32;;;;;;;;;;;35.40;50.90;;;;;;8388371;28;19925;-70
2022/08/13 16:50:38;;;;;;;;;;;35.40;50.10;;;;;;8386968;28;24108;-70
2022/08/13 16:54:43;;;;;;;;;;;35.40;49.80;;;;;;8383500;28;19920;-70
2022/08/13 16:58:53;;;;;;;;;;;35.40;50.00;;;;;;8383350;28;19924;-70
2022/08/13 17:11:43;;;;;;;;;;;35.40;48.50;;;;;;8390856;28;20366;-70
2022/08/13 17:15:46;;;;;;;;;;;35.40;48.30;;;;;;8390292;28;19933;-70
2022/08/13 17:19:48;;;;;;;;;;;35.40;47.70;;;;;;8387824;28;25097;-70
2022/08/13 17:24:06;;;;;;;;;;;35.30;47.50;;;;;;8388211;28;20046;-70
2022/08/13 17:28:07;;;;;;;;;;;35.10;47.00;;;;;;8379148;28;20166;-70
2022/08/13 17:32:12;;;;;;;;;;;35.00;46.80;;;;;;8388974;28;20363;-70
2022/08/13 17:36:15;;;;;;;;;;;34.70;46.40;;;;;;8390902;28;19927;-71
2022/08/13 17:40:21;;;;;;;;;;;34.40;46.00;;;;;;8384611;28;20027;-71
2022/08/13 17:44:23;;;;;;;3.50;1.77;;;34.20;45.80;;;;;;8383525;28;19932;-71
2022/08/13 17:48:35;;;;;;;;;;;34.00;45.70;;;;;;8393867;28;20068;-71
2022/08/13 17:52:57;;;;;;;2.25;1.33;;;33.60;45.50;;;;;;8390423;28;20008;-70
2022/08/13 17:56:59;;;;;;;2.78;1.58;;;33.40;46.00;;;;;;8390874;28;20070;-71
2022/08/13 18:01:07;;;;;;;5.20;1.50;;;33.10;46.30;;;;;;8386878;28;20051;-70
2022/08/13 18:05:24;;;;;;;3.28;1.65;;;32.90;46.60;;;;;;8372975;28;20483;-70
2022/08/13 18:09:50;;;;;;;2.90;1.45;;;32.70;47.10;;;;;;8394029;28;20080;-71
2022/08/13 18:13:55;;;;;;;3.63;1.60;;;32.40;47.60;;;;;;8374962;28;20139;-70
2022/08/13 18:18:06;;;;;;;2.40;1.40;;;32.10;48.00;;;;;;8395670;28;20044;-70
2022/08/13 18:22:28;;;;;;;2.83;1.50;;;32.00;48.40;;;;;;8388940;28;20568;-70
2022/08/13 18:26:30;;;;;;;3.13;1.60;;;31.70;48.50;;;;;;8380418;28;20044;-70
2022/08/13 18:30:32;;;;;;;2.55;1.42;;;31.40;48.60;;;;;;8389607;28;20075;-70
2022/08/13 18:34:52;;;;;;;;;;;31.30;48.90;;;;;;8393320;28;20083;-70
2022/08/13 18:38:54;;;;;;;;;;;31.10;49.10;;;;;;8390583;28;20375;-70
2022/08/13 18:42:57;;;;;;;;;;;30.90;49.40;;;;;;8382122;28;20011;-71
2022/08/13 18:46:58;;;;;;;;;;;30.70;49.60;;;;;;8389547;28;20538;-70
2022/08/13 18:51:04;;;;;;;;;;;30.60;49.80;;;;;;8386653;28;19924;-70
2022/08/13 18:55:08;;;;;;;;;;;30.40;50.00;;;;;;8388198;28;20398;-70
2022/08/13 18:59:12;;;;;;;;;;;30.20;50.20;;;;;;8389515;28;19974;-71
2022/08/13 19:03:14;;;;;;;;;;;30.00;50.30;;;;;;8383905;28;19923;-70
2022/08/13 19:07:16;;;;;;;;;;;29.90;50.70;;;;;;8391747;28;19924;-70
2022/08/13 19:11:36;;;;;;;;;;;29.70;50.90;;;;;;8377181;28;19964;-70
2022/08/13 19:15:46;;;;;;;;;;;29.50;51.10;;;;;;8390022;28;19921;-70
2022/08/13 19:19:48;;;;;;;;;;;29.40;51.30;;;;;;8385882;28;19954;-70
2022/08/13 19:23:56;;;;;;;;;;;29.20;51.40;;;;;;8389715;28;19935;-71
2022/08/13 19:28:03;;;;;;;;;;;29.10;51.70;;;;;;8391420;28;19927;-70
2022/08/13 19:32:06;;;;;;;;;;;29.00;51.90;;;;;;8386271;28;20030;-71
2022/08/13 19:36:07;;;;;;;;;;;28.80;52.00;;;;;;8381957;28;19932;-70
2022/08/13 19:40:19;;;;;;;;;;;28.70;52.30;;;;;;8386806;28;19966;-71
2022/08/13 19:44:37;;;;;;;;;;;28.60;52.40;;;;;;8375169;28;19920;-70
2022/08/13 19:48:38;;;;;;;;;;;28.40;52.50;;;;;;8385870;28;19924;-70
2022/08/13 19:52:42;;;;;;;;;;;28.30;52.90;;;;;;8389025;28;19930;-70
2022/08/13 19:56:44;;;;;;;;;;;28.20;53.00;;;;;;8366613;28;19921;-70
2022/08/13 20:00:47;;;;;;;;;;;28.10;53.20;;;;;;8382683;28;19932;-70
2022/08/13 20:04:53;;;;;;;;;;;27.90;53.50;;;;;;8379364;28;19975;-71
2022/08/13 20:09:10;;;;;;;;;;;27.80;53.60;;;;;;8385940;28;20382;-70
2022/08/13 20:13:13;;;;;;;;;;;27.70;53.80;;;;;;8377476;28;20434;-70
2022/08/13 20:17:15;;;;;;;;;;;27.60;54.00;;;;;;8384864;28;19944;-70
2022/08/13 20:21:17;;;;;;;;;;;27.50;54.20;;;;;;8406197;28;20368;-70
2022/08/13 20:25:19;;;;;;;;;;;27.40;54.50;;;;;;8386141;28;19995;-70
2022/08/13 20:29:41;;;;;;;;;;;27.30;54.80;;;;;;8388965;28;19952;-70
2022/08/13 20:33:43;;;;;;;;;;;27.10;54.90;;;;;;8383271;28;19928;-71
2022/08/13 20:37:45;;;;;;;;;;;27.00;55.10;;;;;;8384336;28;20386;-71
2022/08/13 20:41:53;;;;;;;;;;;27.00;55.40;;;;;;8385681;28;19960;-70
2022/08/13 20:45:55;;;;;;;;;;;26.90;55.50;;;;;;8387169;28;20272;-70
2022/08/13 20:49:57;;;;;;;;;;;26.80;55.80;;;;;;8387220;28;19924;-70
2022/08/13 20:53:58;;;;;;;;;;;26.70;56.00;;;;;;8370357;28;19924;-70
2022/08/13 20:58:01;;;;;;;;;;;26.60;56.10;;;;;;8381478;28;19959;-71
2022/08/13 21:02:23;;;;;;;;;;;26.50;56.20;;;;;;8404371;28;19952;-70
2022/08/13 21:06:25;;;;;;;;;;;26.40;56.40;;;;;;8417219;28;19920;-70
2022/08/13 21:10:27;;;;;;;;;;;26.30;56.60;;;;;;8424445;28;19928;-70
2022/08/13 21:14:43;;;;;;;;;;;26.20;56.90;;;;;;8411038;28;19920;-71
2022/08/13 21:18:44;;;;;;;;;;;26.10;57.10;;;;;;8435014;28;20015;-70
2022/08/13 21:22:50;;;;;;;;;;;26.10;57.40;;;;;;8433068;28;19919;-70
2022/08/13 21:26:52;;;;;;;;;;;26.00;57.60;;;;;;8423938;28;20202;-70
2022/08/13 21:31:00;;;;;;;;;;;25.90;57.80;;;;;;8442356;28;19920;-70
2022/08/13 21:35:01;;;;;;;;;;;25.80;57.90;;;;;;8432878;28;19927;-70
2022/08/13 21:39:03;;;;;;;;;;;25.70;58.10;;;;;;8418863;28;19919;-71
2022/08/13 21:43:06;;;;;;;;;;;25.70;58.30;;;;;;8412752;28;20011;-70
2022/08/13 21:47:08;;;;;;;;;;;25.60;58.40;;;;;;8434018;28;19920;-70
2022/08/13 21:51:15;;;;;;;;;;;25.50;58.50;;;;;;8423108;28;19943;-70
2022/08/13 21:55:17;;;;;;;;;;;25.40;58.60;;;;;;8391539;28;19923;-69
2022/08/13 21:59:19;;;;;;;4.47;2.20;;;25.40;58.80;;;;;;8439991;28;19934;-70
2022/08/13 22:03:25;;;;;;;;;;;25.30;58.90;;;;;;8425183;28;20022;-70
2022/08/13 22:07:47;;;;;;;;;;;25.30;59.20;;;;;;8434375;27;19924;-70
2022/08/13 22:11:57;;;;;;;;;;;25.20;59.30;;;;;;8442374;28;19938;-70
2022/08/13 22:16:01;;;;;;;;;;;25.10;59.40;;;;;;8431217;28;19927;-70
2022/08/13 22:20:05;;;;;;;;;;;25.10;59.70;;;;;;8438899;28;19969;-70
2022/08/13 22:24:17;;;;;;;;;;;25.00;59.70;;;;;;8421612;28;19935;-70
2022/08/13 22:32:39;;;;;;;;;;;24.90;59.90;;;;;;8426510;28;19923;-70
2022/08/13 22:36:43;;;;;;;;;;;24.90;60.00;;;;;;8417133;28;20114;-70
2022/08/13 22:40:45;;;;;;;;;;;24.80;60.10;;;;;;8408914;28;20301;-70
2022/08/13 22:44:51;;;;;;;;;;;24.80;60.40;;;;;;8421769;28;20394;-70
2022/08/13 22:48:55;;;;;;;;;;;24.80;60.50;;;;;;8433259;28;19936;-70
2022/08/13 22:52:59;;;;;;;;;;;24.80;60.70;;;;;;8435492;28;19928;-70
2022/08/13 22:57:03;;;;;;;;;;;24.70;60.70;;;;;;8401130;28;19959;-69
2022/08/13 23:01:05;;;;;;;;;;;24.70;60.80;;;;;;8427535;28;19932;-70
2022/08/13 23:05:08;;;;;;;;;;;24.60;60.90;;;;;;8426843;28;19936;-70
2022/08/13 23:09:16;;;;;;;;;;;24.60;61.20;;;;;;8438835;28;19930;-70
2022/08/13 23:13:23;;;;;;;;;;;24.60;61.30;;;;;;8408897;28;20232;-70
2022/08/13 23:17:24;;;;;;;;;;;24.60;61.60;;;;;;8433838;28;20375;-70
2022/08/13 23:21:28;;;;;;;;;;;24.60;61.60;;;;;;8451944;28;19970;-69
2022/08/13 23:25:29;;;;;;;;;;;24.60;61.60;;;;;;8418654;28;19931;-70
2022/08/13 23:29:31;;;;;;;;;;;24.60;61.70;;;;;;8441412;28;19924;-69
2022/08/13 23:33:33;;;;;;;;;;;24.50;61.70;;;;;;8422496;28;19931;-70